Time;durP1;ratioP1;P1;durP2;ratioP2;P2;SDS_P1;SDS_P2;PMS_P1;PMS_P2;Temp;Humidity;BMP_temperature;BMP_pressure;BME280_temperature;BME280_humidity;BME280_pressure;Samples;Min_cycle;Max_cycle;Signal;HPM_P1;HPM_P2
2023/05/08 00:00:03;;;;;;;6.57;5.00;;;;;;;13.71;100.00;101141.50;691614;28;879;-77
2023/05/08 00:00:25;;;;;;;6.72;5.13;;;;;;;13.70;100.00;101150.28;691522;28;667;-77
2023/05/08 00:00:46;;;;;;;6.57;5.20;;;;;;;13.73;100.00;101165.13;687428;28;1251;-77
2023/05/08 00:01:06;;;;;;;8.13;5.32;;;;;;;13.74;100.00;101138.00;684847;28;4274;-77
2023/05/08 00:01:29;;;;;;;8.33;5.17;;;;;;;13.73;100.00;101138.88;687416;28;920;-77
2023/05/08 00:01:50;;;;;;;6.15;4.97;;;;;;;13.73;100.00;101144.13;686999;28;1351;-76
2023/05/08 00:02:11;;;;;;;6.63;4.97;;;;;;;13.74;100.00;101161.63;685122;28;1292;-77
2023/05/08 00:02:31;;;;;;;6.45;5.03;;;;;;;13.73;100.00;101138.88;688817;28;874;-77
2023/05/08 00:02:52;;;;;;;6.80;5.00;;;;;;;13.76;100.00;101144.09;687917;28;1138;-77
2023/05/08 00:03:12;;;;;;;7.13;5.13;;;;;;;13.76;100.00;101146.72;682725;28;1034;-76
2023/05/08 00:03:33;;;;;;;6.77;5.17;;;;;;;13.76;100.00;101146.72;684784;28;1257;-77
2023/05/08 00:03:53;;;;;;;8.43;5.03;;;;;;;13.74;100.00;101146.72;686978;28;896;-77
2023/05/08 00:04:19;;;;;;;7.45;5.07;;;;;;;13.74;100.00;101143.25;683849;28;4293;-77
2023/05/08 00:04:39;;;;;;;6.55;5.03;;;;;;;13.73;100.00;101144.13;684171;28;989;-76
2023/05/08 00:05:00;;;;;;;6.47;4.80;;;;;;;13.72;100.00;101148.50;681837;28;921;-77
2023/05/08 00:05:20;;;;;;;6.95;5.00;;;;;;;13.74;100.00;101153.75;684798;28;1340;-77
2023/05/08 00:05:40;;;;;;;13.60;6.10;;;;;;;13.72;100.00;101142.38;681685;29;1306;-76
2023/05/08 00:06:05;;;;;;;7.07;5.03;;;;;;;13.73;100.00;101149.38;683718;28;1119;-76
2023/05/08 00:06:26;;;;;;;7.40;5.20;;;;;;;13.75;100.00;101145.00;684749;28;1128;-77
2023/05/08 00:06:47;;;;;;;6.80;5.20;;;;;;;13.73;100.00;101146.75;684767;28;1382;-77
2023/05/08 00:07:07;;;;;;;7.45;5.05;;;;;;;13.75;100.00;101145.84;683401;28;4307;-77
2023/05/08 00:07:28;;;;;;;7.10;4.70;;;;;;;13.74;100.00;101154.59;686297;28;3578;-76
2023/05/08 00:07:50;;;;;;;6.30;5.00;;;;;;;13.74;100.00;101151.13;686673;28;983;-77
2023/05/08 00:08:10;;;;;;;6.47;5.03;;;;;;;13.73;100.00;101144.97;680949;28;1115;-77
2023/05/08 00:08:31;;;;;;;6.83;5.20;;;;;;;13.73;100.00;101162.50;687103;28;1566;-77
2023/05/08 00:08:51;;;;;;;6.75;4.90;;;;;;;13.72;100.00;101150.25;683804;28;1085;-76
2023/05/08 00:09:12;;;;;;;6.27;4.83;;;;;;;13.71;100.00;101146.75;684967;28;1208;-77
2023/05/08 00:09:32;;;;;;;5.87;4.73;;;;;;;13.70;100.00;101144.16;685978;28;969;-76
2023/05/08 00:09:52;;;;;;;6.83;4.97;;;;;;;13.70;100.00;101152.03;683931;28;2742;-77
2023/05/08 00:10:13;;;;;;;6.83;5.00;;;;;;;13.71;100.00;101151.16;686896;28;4341;-75
2023/05/08 00:10:33;;;;;;;7.10;4.67;;;;;;;13.70;100.00;101149.41;692084;28;1208;-77
2023/05/08 00:10:53;;;;;;;8.20;5.05;;;;;;;13.71;100.00;101151.16;689648;28;1083;-76
2023/05/08 00:11:15;;;;;;;7.97;5.15;;;;;;;13.69;100.00;101151.16;682880;28;1202;-76
2023/05/08 00:11:35;;;;;;;7.03;5.18;;;;;;;13.68;100.00;101152.06;681614;28;1229;-76
2023/05/08 00:11:56;;;;;;;6.83;5.03;;;;;;;13.69;100.00;101147.66;680486;28;1263;-76
2023/05/08 00:12:16;;;;;;;7.78;5.25;;;;;;;13.69;100.00;101150.28;685491;28;1095;-76
2023/05/08 00:12:37;;;;;;;7.30;5.13;;;;;;;13.68;100.00;101146.81;687518;28;1493;-77
2023/05/08 00:12:58;;;;;;;5.90;4.93;;;;;;;13.67;100.00;101144.19;682508;28;2859;-79
2023/05/08 00:13:18;;;;;;;6.37;4.70;;;;;;;13.67;100.00;101147.69;684345;28;4354;-76
2023/05/08 00:13:42;;;;;;;6.70;4.90;;;;;;;13.67;100.00;101147.69;685861;28;1072;-77
2023/05/08 00:14:02;;;;;;;6.00;4.93;;;;;;;13.67;100.00;101179.22;685277;28;1529;-77
2023/05/08 00:14:23;;;;;;;6.63;4.70;;;;;;;13.66;100.00;101168.72;683909;28;1111;-77
2023/05/08 00:14:43;;;;;;;6.97;5.10;;;;;;;13.68;100.00;101180.97;684356;28;985;-76
2023/05/08 00:15:13;;;;;;;6.38;4.90;;;;;;;13.68;100.00;101144.19;684839;28;1106;-76
2023/05/08 00:15:37;;;;;;;7.20;5.28;;;;;;;13.67;100.00;101175.72;685868;28;2742;-76
2023/05/08 00:16:01;;;;;;;6.80;5.20;;;;;;;13.65;100.00;101172.22;683744;28;1392;-77
2023/05/08 00:16:27;;;;;;;6.57;4.97;;;;;;;13.67;100.00;101152.06;683414;28;4381;-77
2023/05/08 00:16:47;;;;;;;6.20;4.90;;;;;;;13.68;100.00;101159.94;684340;28;807;-78
2023/05/08 00:17:08;;;;;;;6.00;4.65;;;;;;;13.69;100.00;101168.69;683889;28;1481;-78
2023/05/08 00:17:29;;;;;;;6.13;4.70;;;;;;;13.66;100.00;101151.19;682274;29;1179;-78
2023/05/08 00:17:49;;;;;;;7.32;4.82;;;;;;;13.66;100.00;101161.69;684808;28;1415;-78
2023/05/08 00:18:10;;;;;;;6.72;5.13;;;;;;;13.63;100.00;101152.09;685007;28;1357;-77
2023/05/08 00:18:30;;;;;;;7.70;5.20;;;;;;;13.60;100.00;101149.50;687459;28;726;-77
2023/05/08 00:19:01;;;;;;;7.35;5.00;;;;;;;13.61;100.00;101168.78;687071;28;1151;-77
2023/05/08 00:19:22;;;;;;;6.35;4.82;;;;;;;13.60;100.00;101183.63;686671;28;4294;-77
2023/05/08 00:19:42;;;;;;;6.25;4.75;;;;;;;13.60;100.00;101170.50;685960;28;1324;-77
2023/05/08 00:20:03;;;;;;;6.63;4.57;;;;;;;13.60;100.00;101160.00;683894;28;1141;-77
2023/05/08 00:20:24;;;;;;;6.93;4.68;;;;;;;13.60;100.00;101144.25;679308;29;929;-77
2023/05/08 00:20:44;;;;;;;6.43;4.93;;;;;;;13.59;100.00;101147.75;686653;28;1277;-77
2023/05/08 00:21:05;;;;;;;6.93;5.10;;;;;;;13.61;100.00;101187.16;684978;28;1024;-77
2023/05/08 00:21:26;;;;;;;7.72;5.00;;;;;;;13.60;100.00;101162.63;684147;28;1339;-77
2023/05/08 00:21:46;;;;;;;7.13;4.97;;;;;;;13.60;100.00;101175.75;686713;28;2912;-77
2023/05/08 00:22:07;;;;;;;6.82;5.10;;;;;;;13.62;100.00;101152.09;682910;28;4358;-77
2023/05/08 00:22:28;;;;;;;7.17;4.90;;;;;;;13.61;100.00;101155.63;683425;28;1428;-77
2023/05/08 00:22:48;;;;;;;6.15;4.93;;;;;;;13.59;100.00;101158.25;687446;28;1096;-77
2023/05/08 00:23:09;;;;;;;6.33;4.90;;;;;;;13.59;100.00;101163.50;686670;28;1195;-77
2023/05/08 00:23:31;;;;;;;6.93;4.80;;;;;;;13.60;100.00;101167.88;685247;28;901;-77
2023/05/08 00:23:52;;;;;;;6.68;4.88;;;;;;;13.60;100.00;101153.88;687861;28;912;-77
2023/05/08 00:24:12;;;;;;;7.33;5.03;;;;;;;13.58;100.00;101151.28;685214;28;1229;-77
2023/05/08 00:24:33;;;;;;;6.75;4.82;;;;;;;13.58;100.00;101153.91;687220;28;1398;-77
2023/05/08 00:24:56;;;;;;;6.77;4.97;;;;;;;13.55;100.00;101168.81;687477;28;1078;-77
2023/05/08 00:25:16;;;;;;;6.70;4.75;;;;;;;13.56;100.00;101153.03;685005;28;4310;-77
2023/05/08 00:25:37;;;;;;;7.30;4.70;;;;;;;13.56;100.00;101160.06;684350;28;2870;-78
2023/05/08 00:25:57;;;;;;;7.90;5.00;;;;;;;13.54;100.00;101160.06;688800;28;1184;-77
2023/05/08 00:26:18;;;;;;;7.13;5.10;;;;;;;13.55;100.00;101172.28;689895;28;1552;-77
2023/05/08 00:26:38;;;;;;;6.73;4.87;;;;;;;13.54;100.00;101149.56;689579;28;870;-76
2023/05/08 00:26:59;;;;;;;6.65;4.75;;;;;;;13.55;100.00;101161.78;686660;28;1003;-78
2023/05/08 00:27:20;;;;;;;7.20;5.05;;;;;;;13.56;100.00;101150.41;687542;28;789;-77
2023/05/08 00:27:41;;;;;;;6.47;5.22;;;;;;;13.56;100.00;101157.44;687470;28;1048;-78
2023/05/08 00:28:01;;;;;;;6.20;4.90;;;;;;;13.56;100.00;101158.28;687283;28;1257;-77
2023/05/08 00:28:24;;;;;;;5.78;4.63;;;;;;;13.56;100.00;101147.78;687783;28;4935;-77
2023/05/08 00:28:45;;;;;;;7.32;4.80;;;;;;;13.56;100.00;101179.31;687537;28;3492;-77
2023/05/08 00:29:06;;;;;;;7.80;5.13;;;;;;;13.56;100.00;101149.53;689719;28;1437;-77
2023/05/08 00:29:29;;;;;;;6.75;4.80;;;;;;;13.55;100.00;101169.66;694194;28;1263;-77
2023/05/08 00:29:49;;;;;;;6.57;4.68;;;;;;;13.55;100.00;101159.16;690190;28;1426;-78
2023/05/08 00:30:10;;;;;;;6.67;4.60;;;;;;;13.54;100.00;101165.31;685888;28;1277;-78
2023/05/08 00:30:31;;;;;;;6.55;4.60;;;;;;;13.55;100.00;101156.53;684783;28;1238;-78
2023/05/08 00:30:51;;;;;;;6.28;4.70;;;;;;;13.55;100.00;101164.41;684266;28;2780;-77
2023/05/08 00:31:12;;;;;;;6.50;4.70;;;;;;;13.55;100.00;101160.94;683983;28;4353;-78
2023/05/08 00:31:33;;;;;;;6.60;4.97;;;;;;;13.55;100.00;101164.41;687934;28;1337;-78
2023/05/08 00:31:53;;;;;;;6.45;4.90;;;;;;;13.55;100.00;101160.94;687461;28;1107;-78
2023/05/08 00:32:14;;;;;;;8.53;4.77;;;;;;;13.54;100.00;101162.69;688260;28;1125;-77
2023/05/08 00:32:35;;;;;;;8.70;5.07;;;;;;;13.53;100.00;101158.31;690330;28;1343;-77
2023/05/08 00:32:59;;;;;;;5.97;4.67;;;;;;;13.52;100.00;101155.72;683598;28;1354;-76
2023/05/08 00:33:19;;;;;;;6.97;4.90;;;;;;;13.51;100.00;101160.06;689824;28;1404;-76
2023/05/08 00:33:39;;;;;;;6.70;4.77;;;;;;;13.51;100.00;101162.69;686836;28;1337;-77
2023/05/08 00:34:00;;;;;;;5.70;4.47;;;;;;;13.50;100.00;101165.34;685208;28;1914;-77
2023/05/08 00:34:20;;;;;;;6.27;5.00;;;;;;;13.48;100.00;101165.38;686980;28;4321;-77
2023/05/08 00:34:41;;;;;;;6.50;4.90;;;;;;;13.50;100.00;101167.97;689426;28;1196;-77
2023/05/08 00:35:01;;;;;;;7.37;5.20;;;;;;;13.52;100.00;101167.06;686787;28;955;-77
2023/05/08 00:35:22;;;;;;;7.60;5.10;;;;;;;13.52;100.00;101163.59;688343;28;1391;-77
2023/05/08 00:35:42;;;;;;;7.80;5.17;;;;;;;13.51;100.00;101162.69;689141;28;1315;-77
2023/05/08 00:36:04;;;;;;;7.15;5.13;;;;;;;13.50;100.00;101163.59;686172;28;1352;-76
2023/05/08 00:36:25;;;;;;;6.72;5.10;;;;;;;13.50;100.00;101168.88;685440;28;1004;-77
2023/05/08 00:36:45;;;;;;;6.70;5.17;;;;;;;13.47;100.00;101160.97;687452;28;1099;-77
2023/05/08 00:37:05;;;;;;;7.20;5.07;;;;;;;13.47;100.00;101165.38;683321;28;4411;-77
2023/05/08 00:37:26;;;;;;;7.28;4.88;;;;;;;13.47;100.00;101168.00;685948;28;989;-77
2023/05/08 00:37:46;;;;;;;6.93;4.97;;;;;;;13.46;100.00;101169.78;684333;28;1122;-77
2023/05/08 00:38:07;;;;;;;6.50;4.82;;;;;;;13.45;100.00;101166.25;688437;28;1203;-77
2023/05/08 00:38:35;;;;;;;6.45;5.03;;;;;;;13.45;100.00;101166.25;688594;28;2744;-76
2023/05/08 00:38:58;;;;;;;7.32;5.10;;;;;;;13.45;100.00;101166.25;686041;28;1398;-77
2023/05/08 00:39:19;;;;;;;8.70;5.07;;;;;;;13.43;100.00;101170.66;692555;28;1350;-77
2023/05/08 00:39:40;;;;;;;7.47;4.93;;;;;;;13.45;100.00;101168.03;690267;28;1066;-77
2023/05/08 00:40:00;;;;;;;7.25;5.30;;;;;;;13.44;100.00;101168.91;689433;28;1228;-77
2023/05/08 00:40:21;;;;;;;7.07;5.10;;;;;;;13.43;100.00;101164.53;686802;28;4301;-77
2023/05/08 00:40:42;;;;;;;7.50;5.13;;;;;;;13.42;100.00;101170.69;690950;28;1248;-77
2023/05/08 00:41:03;;;;;;;7.22;5.20;;;;;;;13.42;100.00;101176.78;688957;28;2814;-77
2023/05/08 00:41:23;;;;;;;6.60;5.05;;;;;;;13.43;100.00;101172.41;692570;28;1247;-77
2023/05/08 00:41:44;;;;;;;6.30;4.90;;;;;;;13.44;100.00;101171.53;691002;28;1404;-77
2023/05/08 00:42:04;;;;;;;6.25;4.80;;;;;;;13.44;100.00;101164.53;686357;28;1152;-77
2023/05/08 00:42:24;;;;;;;7.17;5.17;;;;;;;13.45;100.00;101176.75;684319;28;1284;-77
2023/05/08 00:42:45;;;;;;;7.57;5.25;;;;;;;13.46;100.00;101177.66;685682;28;1243;-77
2023/05/08 00:43:08;;;;;;;6.53;5.10;;;;;;;13.47;100.00;101173.25;688035;28;5244;-77
2023/05/08 00:43:32;;;;;;;7.47;5.20;;;;;;;13.46;100.00;101167.16;690022;28;1247;-77
2023/05/08 00:43:52;;;;;;;6.97;5.13;;;;;;;13.45;100.00;101174.13;686588;28;3004;-78
2023/05/08 00:44:14;;;;;;;6.85;5.00;;;;;;;13.47;100.00;101181.13;688665;28;1295;-77
2023/05/08 00:44:34;;;;;;;7.47;5.13;;;;;;;13.45;100.00;101200.41;687552;28;1295;-78
2023/05/08 00:44:58;;;;;;;7.05;4.60;;;;;;;13.47;100.00;101178.50;691012;28;1333;-77
2023/05/08 00:45:19;;;;;;;7.13;4.88;;;;;;;13.46;100.00;101169.78;687384;28;1251;-77
2023/05/08 00:45:40;;;;;;;6.73;4.97;;;;;;;13.48;100.00;101204.75;682915;28;1244;-78
2023/05/08 00:46:01;;;;;;;7.05;5.07;;;;;;;13.47;100.00;101189.88;684050;28;869;-78
2023/05/08 00:46:30;;;;;;;6.80;4.90;;;;;;;13.47;100.00;101168.00;683467;28;4260;-77
2023/05/08 00:46:51;;;;;;;6.95;4.78;;;;;;;13.46;100.00;101159.25;684113;28;1268;-77
2023/05/08 00:47:14;;;;;;;6.60;4.78;;;;;;;13.46;100.00;101182.91;687690;28;1470;-77
2023/05/08 00:47:35;;;;;;;6.18;4.82;;;;;;;13.46;100.00;101169.78;688689;28;1603;-78
2023/05/08 00:47:59;;;;;;;6.70;4.88;;;;;;;13.47;100.00;101186.38;691051;28;1243;-78
2023/05/08 00:48:22;;;;;;;7.97;4.88;;;;;;;13.46;100.00;101169.78;688242;28;1674;-78
2023/05/08 00:48:45;;;;;;;7.00;4.97;;;;;;;13.47;100.00;101157.50;684488;28;1514;-78
2023/05/08 00:49:13;;;;;;;8.38;4.72;;;;;;;13.48;100.00;101186.38;681280;28;4342;-78
2023/05/08 00:49:34;;;;;;;6.13;4.75;;;;;;;13.47;100.00;101176.75;684392;28;1392;-77
2023/05/08 00:50:01;;;;;;;6.85;4.60;;;;;;;13.45;100.00;101176.75;685923;28;1146;-78
2023/05/08 00:50:22;;;;;;;7.05;5.07;;;;;;;13.46;100.00;101193.41;687138;28;1406;-78
2023/05/08 00:50:47;;;;;;;6.88;5.45;;;;;;;13.48;100.00;101190.78;687646;28;1418;-78
2023/05/08 00:51:10;;;;;;;6.45;5.35;;;;;;;13.47;100.00;101163.63;686343;28;5377;-78
2023/05/08 00:51:31;;;;;;;6.20;4.90;;;;;;;13.48;100.00;101164.50;687530;28;1536;-77
2023/05/08 00:51:56;;;;;;;6.50;4.85;;;;;;;13.47;100.00;101171.50;683885;28;2878;-78
2023/05/08 00:52:18;;;;;;;6.45;4.70;;;;;;;13.46;100.00;101156.66;686762;28;5030;-78
2023/05/08 00:52:39;;;;;;;6.63;5.00;;;;;;;13.49;100.00;101203.03;690107;28;1498;-78
2023/05/08 00:53:10;;;;;;;6.85;4.82;;;;;;;13.49;100.00;101161.00;691794;28;1583;-78
2023/05/08 00:53:36;;;;;;;6.20;4.85;;;;;;;13.47;100.00;101178.50;684859;28;1324;-77
2023/05/08 00:53:58;;;;;;;6.22;5.10;;;;;;;13.48;100.00;101170.63;683174;28;1883;-79
2023/05/08 00:54:19;;;;;;;6.10;4.68;;;;;;;13.48;100.00;101164.50;690145;28;2692;-78
2023/05/08 00:54:40;;;;;;;7.57;5.00;;;;;;;13.50;100.00;101165.34;687868;28;1248;-79
2023/05/08 00:55:05;;;;;;;7.03;5.07;;;;;;;13.49;100.00;101180.25;688540;28;1187;-78
2023/05/08 00:55:26;;;;;;;6.22;4.80;;;;;;;13.49;100.00;101180.25;690133;28;4813;-79
2023/05/08 00:55:48;;;;;;;6.85;4.75;;;;;;;13.49;100.00;101158.38;685092;28;1294;-79
2023/05/08 00:56:11;;;;;;;6.68;4.80;;;;;;;13.49;100.00;101159.22;687521;28;1492;-78
2023/05/08 00:56:33;;;;;;;8.50;5.35;;;;;;;13.49;100.00;101161.00;690509;28;980;-78
2023/05/08 00:56:54;;;;;;;7.43;5.00;;;;;;;13.49;100.00;101167.13;690478;28;1306;-79
2023/05/08 00:57:15;;;;;;;7.20;5.00;;;;;;;13.49;100.00;101182.00;686540;28;3028;-78
2023/05/08 00:57:37;;;;;;;7.40;5.00;;;;;;;13.49;100.00;101164.50;684989;28;1346;-78
2023/05/08 00:57:58;;;;;;;7.20;4.68;;;;;;;13.46;100.00;101188.16;686649;28;1385;-78
2023/05/08 00:58:20;;;;;;;6.47;4.70;;;;;;;13.47;100.00;101173.25;685946;28;4360;-79
2023/05/08 00:58:42;;;;;;;7.80;5.20;;;;;;;13.46;100.00;101161.91;688820;28;1346;-79
2023/05/08 00:59:30;;;;;;;7.20;5.07;;;;;;;13.47;100.00;101157.50;686932;28;1095;-78
2023/05/08 00:59:52;;;;;;;6.97;4.70;;;;;;;13.47;100.00;101173.25;688580;28;3592;-78
2023/05/08 01:00:19;;;;;;;7.22;4.80;;;;;;;13.45;100.00;101181.16;687480;28;1320;-79
2023/05/08 01:00:42;;;;;;;6.88;4.80;;;;;;;13.44;100.00;101159.28;689377;28;1132;-79
2023/05/08 01:01:03;;;;;;;6.35;4.80;;;;;;;13.44;100.00;101164.53;689167;28;4299;-79
2023/05/08 01:01:24;;;;;;;6.67;4.97;;;;;;;13.43;100.00;101154.91;685229;28;873;-79
2023/05/08 01:01:46;;;;;;;8.30;5.03;;;;;;;13.42;100.00;101153.16;688223;28;1379;-79
2023/05/08 01:02:07;;;;;;;6.20;4.78;;;;;;;13.41;100.00;101159.28;687230;28;1256;-79
2023/05/08 01:02:30;;;;;;;6.07;4.80;;;;;;;13.43;100.00;101167.16;688483;28;1510;-79
2023/05/08 01:02:51;;;;;;;6.53;4.88;;;;;;;13.43;100.00;101157.53;687702;28;1257;-79
2023/05/08 01:03:13;;;;;;;6.07;4.75;;;;;;;13.43;100.00;101160.16;687226;28;1397;-79
2023/05/08 01:03:35;;;;;;;6.55;5.03;;;;;;;13.42;100.00;101157.56;683990;28;1142;-79
2023/05/08 01:03:59;;;;;;;6.65;4.68;;;;;;;13.40;100.00;101156.69;683808;28;1344;-79
2023/05/08 01:04:24;;;;;;;6.93;4.93;;;;;;;13.41;100.00;101158.44;684355;28;4297;-79
2023/05/08 01:04:45;;;;;;;6.40;4.70;;;;;;;13.40;100.00;101161.94;687785;28;1254;-79
2023/05/08 01:05:06;;;;;;;7.53;4.95;;;;;;;13.43;100.00;101151.38;686578;28;1361;-79
2023/05/08 01:05:30;;;;;;;9.00;5.53;;;;;;;13.43;100.00;101157.53;690515;28;1293;-79
2023/05/08 01:05:51;;;;;;;7.25;4.95;;;;;;;13.44;100.00;101166.28;690885;28;1034;-79
2023/05/08 01:06:14;;;;;;;6.10;4.60;;;;;;;13.42;100.00;101168.91;688673;28;1422;-79
2023/05/08 01:06:36;;;;;;;5.75;4.63;;;;;;;13.42;100.00;101155.78;691471;28;1255;-79
2023/05/08 01:07:03;;;;;;;7.03;4.80;;;;;;;13.41;100.00;101193.44;694332;28;893;-80
2023/05/08 01:07:23;;;;;;;6.55;5.00;;;;;;;13.41;100.00;101168.94;692635;28;4934;-80
2023/05/08 01:07:46;;;;;;;8.73;5.00;;;;;;;13.42;100.00;101154.94;689152;28;1283;-80
2023/05/08 01:08:07;;;;;;;7.85;4.90;;;;;;;13.40;100.00;101162.81;688807;28;1279;-79
2023/05/08 01:08:27;;;;;;;8.07;5.05;;;;;;;13.41;100.00;101174.19;691538;28;1518;-80
2023/05/08 01:08:49;;;;;;;6.55;4.70;;;;;;;13.40;100.00;101157.56;691821;28;1116;-80
2023/05/08 01:09:10;;;;;;;6.90;4.55;;;;;;;13.42;100.00;101175.94;685690;28;1132;-80
2023/05/08 01:09:31;;;;;;;7.53;5.00;;;;;;;13.42;100.00;101176.78;688949;28;1176;-80
2023/05/08 01:09:52;;;;;;;7.45;4.97;;;;;;;13.43;100.00;101177.66;687698;28;2911;-79
2023/05/08 01:10:15;;;;;;;6.60;5.00;;;;;;;13.44;100.00;101177.66;679474;28;4979;-80
2023/05/08 01:10:52;;;;;;;6.82;5.28;;;;;;;13.44;100.00;101156.66;687863;28;1390;-79
2023/05/08 01:11:54;;;;;;;6.72;5.00;;;;;;;13.44;100.00;101161.03;689794;28;1249;-80
2023/05/08 01:12:30;;;;;;;7.20;5.30;;;;;;;13.45;100.00;101158.38;677799;29;2767;-80
2023/05/08 01:13:15;;;;;;;7.05;4.90;;;;;;;13.46;100.00;101185.53;680433;29;1122;-79
2023/05/08 01:13:51;;;;;;;6.63;5.13;;;;;;;13.45;100.00;101160.16;676568;29;4835;-80
2023/05/08 01:14:52;;;;;;;7.32;4.90;;;;;;;13.46;100.00;101161.91;676257;29;965;-80
2023/05/08 01:15:30;;;;;;;8.23;5.47;;;;;;;13.43;100.00;101157.53;675547;29;2468;-80
2023/05/08 01:15:59;;;;;;;7.93;4.85;;;;;;;13.45;100.00;101174.13;679640;29;1280;-80
2023/05/08 01:16:42;;;;;;;6.55;4.88;;;;;;;13.48;100.00;101164.50;681897;29;4441;-79
2023/05/08 01:17:23;;;;;;;6.05;4.72;;;;;;;13.47;100.00;101174.13;676032;29;1460;-80
2023/05/08 01:18:00;;;;;;;7.13;5.28;;;;;;;13.47;100.00;101174.13;680234;29;1129;-79
2023/05/08 01:18:28;;;;;;;8.32;5.05;;;;;;;13.47;100.00;101168.88;678228;29;1467;-80
2023/05/08 01:19:15;;;;;;;7.18;5.05;;;;;;;13.47;100.00;101163.63;677125;29;1372;-79
2023/05/08 01:20:00;;;;;;;6.90;5.13;;;;;;;13.49;100.00;101164.50;678407;29;4780;-80
2023/05/08 01:20:38;;;;;;;7.60;4.88;;;;;;;13.50;100.00;101167.97;680233;29;1313;-79
2023/05/08 01:21:10;;;;;;;7.30;5.25;;;;;;;13.51;100.00;101164.47;679123;29;1597;-80
2023/05/08 01:21:36;;;;;;;7.75;5.25;;;;;;;13.47;100.00;101168.88;683230;28;1287;-79
2023/05/08 01:22:09;;;;;;;6.43;5.15;;;;;;;13.48;100.00;101168.00;685098;28;1379;-80
2023/05/08 01:22:38;;;;;;;7.07;5.13;;;;;;;13.48;100.00;101165.38;685731;28;4761;-80
2023/05/08 01:23:31;;;;;;;7.38;5.05;;;;;;;13.49;100.00;101168.88;686663;28;1245;-80
2023/05/08 01:24:13;;;;;;;7.07;5.28;;;;;;;13.49;100.00;101166.25;691467;28;1183;-80
2023/05/08 01:24:34;;;;;;;7.55;5.10;;;;;;;13.48;100.00;101167.13;691466;28;2942;-79
2023/05/08 01:25:06;;;;;;;6.57;4.85;;;;;;;13.47;100.00;101166.25;688836;28;3331;-79
2023/05/08 01:26:04;;;;;;;7.15;5.18;;;;;;;13.47;100.00;101165.38;690000;28;6484;-79
2023/05/08 01:26:50;;;;;;;7.43;4.97;;;;;;;13.46;100.00;101167.16;678353;28;1396;-78
2023/05/08 01:27:17;;;;;;;6.63;4.90;;;;;;;13.46;100.00;101167.16;686233;28;2927;-79
2023/05/08 01:28:12;;;;;;;6.97;5.00;;;;;;;13.45;100.00;101168.03;690022;28;1018;-79
2023/05/08 01:28:47;;;;;;;6.38;4.90;;;;;;;13.46;100.00;101167.16;691553;28;4791;-78
2023/05/08 01:29:32;;;;;;;7.88;5.25;;;;;;;13.46;100.00;101169.78;694317;28;965;-79
2023/05/08 01:30:40;;;;;;;7.25;5.32;;;;;;;13.45;100.00;101170.66;694543;28;2884;-79
2023/05/08 01:31:30;;;;;;;6.70;5.50;;;;;;;13.43;100.00;101164.53;686203;28;1052;-79
2023/05/08 01:32:05;;;;;;;6.80;5.07;;;;;;;13.40;100.00;101167.19;686848;28;4906;-79
2023/05/08 01:32:33;;;;;;;6.95;5.15;;;;;;;13.38;100.00;101168.97;687428;28;1148;-79
2023/05/08 01:33:02;;;;;;;6.20;4.95;;;;;;;13.39;100.00;101170.72;687496;28;1125;-79
2023/05/08 01:33:33;;;;;;;7.53;5.30;;;;;;;13.39;100.00;101168.09;684994;28;1680;-79
2023/05/08 01:34:07;;;;;;;7.63;5.30;;;;;;;13.38;100.00;101163.72;685258;28;1974;-79
2023/05/08 01:34:34;;;;;;;7.63;5.30;;;;;;;13.37;100.00;101168.06;683372;28;5203;-79
2023/05/08 01:35:06;;;;;;;8.40;5.85;;;;;;;13.41;100.00;101168.94;681569;28;1262;-79
2023/05/08 01:35:37;;;;;;;7.70;5.30;;;;;;;13.43;100.00;101168.03;685558;28;1426;-79
2023/05/08 01:36:23;;;;;;;6.97;5.30;;;;;;;13.38;100.00;101169.81;685681;28;988;-79
2023/05/08 01:37:13;;;;;;;7.22;5.38;;;;;;;13.35;100.00;101169.84;675122;29;1333;-79
2023/05/08 01:37:57;;;;;;;6.65;5.35;;;;;;;13.35;100.00;101175.09;679696;28;5281;-79
2023/05/08 01:38:29;;;;;;;9.18;5.32;;;;;;;13.34;100.00;101177.72;684971;28;1039;-79
2023/05/08 01:39:08;;;;;;;7.82;5.32;;;;;;;13.34;100.00;101172.47;685607;28;1165;-81
2023/05/08 01:39:56;;;;;;;7.10;5.63;;;;;;;13.31;100.00;101178.59;687459;28;1300;-79
2023/05/08 01:40:24;;;;;;;8.55;5.20;;;;;;;13.32;100.00;101176.84;687119;28;4288;-79
2023/05/08 01:41:13;;;;;;;8.55;5.50;;;;;;;13.27;100.00;101180.38;691285;28;821;-79
2023/05/08 01:41:37;;;;;;;7.57;5.00;;;;;;;13.26;100.00;101183.91;693196;28;1027;-79
2023/05/08 01:42:20;;;;;;;7.28;5.20;;;;;;;13.27;100.00;101177.75;694131;28;1074;-80
2023/05/08 01:42:50;;;;;;;7.35;5.22;;;;;;;13.28;100.00;101176.00;695847;28;884;-80
2023/05/08 01:43:41;;;;;;;7.75;5.80;;;;;;;13.27;100.00;101177.75;690988;28;4314;-79
2023/05/08 01:44:12;;;;;;;8.15;5.28;;;;;;;13.28;100.00;101183.88;691865;28;950;-80
2023/05/08 01:44:42;;;;;;;7.57;5.10;;;;;;;13.29;100.00;101180.34;691205;28;910;-79
2023/05/08 01:45:15;;;;;;;7.72;5.22;;;;;;;13.26;100.00;101178.66;692120;28;2716;-80
2023/05/08 01:45:43;;;;;;;7.47;5.25;;;;;;;13.27;100.00;101182.13;691186;28;1011;-80
2023/05/08 01:46:13;;;;;;;8.60;5.10;;;;;;;13.29;100.00;101180.34;692269;28;4298;-80
2023/05/08 01:46:34;;;;;;;7.18;4.88;;;;;;;13.31;100.00;101185.63;692400;28;1141;-80
2023/05/08 01:46:54;;;;;;;9.23;5.32;;;;;;;13.29;100.00;101182.97;689002;28;1255;-79
2023/05/08 01:47:17;;;;;;;8.70;5.10;;;;;;;13.30;100.00;101171.59;687037;28;1230;-80
2023/05/08 01:47:40;;;;;;;7.70;5.38;;;;;;;13.29;100.00;101181.25;687344;28;956;-80
2023/05/08 01:48:07;;;;;;;7.18;5.57;;;;;;;13.31;100.00;101183.00;686720;28;1079;-80
2023/05/08 01:48:32;;;;;;;7.72;5.20;;;;;;;13.31;100.00;101180.38;689724;28;1059;-80
2023/05/08 01:49:02;;;;;;;7.65;5.03;;;;;;;13.30;100.00;101179.47;690146;28;1236;-80
2023/05/08 01:49:33;;;;;;;6.80;5.35;;;;;;;13.30;100.00;101179.47;689947;28;5068;-79
2023/05/08 01:50:01;;;;;;;6.72;5.07;;;;;;;13.34;100.00;101191.72;685751;28;982;-80
2023/05/08 01:50:29;;;;;;;6.35;5.00;;;;;;;13.36;100.00;101191.72;682891;29;896;-80
2023/05/08 01:50:57;;;;;;;7.40;5.40;;;;;;;13.36;100.00;101181.22;684933;28;1240;-80
2023/05/08 01:51:21;;;;;;;7.70;5.40;;;;;;;13.33;100.00;101181.22;684236;28;1248;-80
2023/05/08 01:51:47;;;;;;;6.95;4.82;;;;;;;13.31;100.00;101188.25;684577;28;2826;-80
2023/05/08 01:52:17;;;;;;;6.65;5.00;;;;;;;13.31;100.00;101185.63;680599;28;4352;-80
2023/05/08 01:53:01;;;;;;;7.07;5.55;;;;;;;13.29;100.00;101181.25;682825;28;1398;-80
2023/05/08 01:53:38;;;;;;;7.25;5.10;;;;;;;13.28;100.00;101184.75;682385;29;1608;-80
2023/05/08 01:54:05;;;;;;;6.32;4.72;;;;;;;13.26;100.00;101180.38;680374;28;1934;-79
2023/05/08 01:54:32;;;;;;;7.05;5.13;;;;;;;13.25;100.00;101183.88;685620;28;1785;-80
2023/05/08 01:55:02;;;;;;;7.70;5.00;;;;;;;13.24;100.00;101180.41;687354;28;813;-80
2023/05/08 01:55:29;;;;;;;7.93;4.95;;;;;;;13.24;100.00;101179.53;686913;28;4322;-80
2023/05/08 01:55:56;;;;;;;7.25;5.30;;;;;;;13.24;100.00;101183.03;686029;28;1397;-80
2023/05/08 01:56:21;;;;;;;8.30;5.35;;;;;;;13.25;100.00;101186.50;686907;28;1165;-80
2023/05/08 01:56:45;;;;;;;6.93;5.50;;;;;;;13.24;100.00;101188.28;685299;28;2164;-80
2023/05/08 01:57:08;;;;;;;7.28;5.45;;;;;;;13.25;100.00;101178.63;682623;28;1177;-80
2023/05/08 01:57:31;;;;;;;7.18;5.03;;;;;;;13.25;100.00;101184.78;684375;28;1318;-80
2023/05/08 01:57:55;;;;;;;7.63;5.20;;;;;;;13.24;100.00;101177.78;686478;28;3010;-80
2023/05/08 01:58:17;;;;;;;6.65;5.20;;;;;;;13.22;100.00;101184.81;686301;28;5176;-80
2023/05/08 01:58:38;;;;;;;7.07;5.35;;;;;;;13.22;100.00;101179.56;684961;28;1307;-80
2023/05/08 01:59:01;;;;;;;7.75;5.43;;;;;;;13.23;100.00;101180.41;684332;28;1525;-80
2023/05/08 01:59:23;;;;;;;7.47;4.75;;;;;;;13.24;100.00;101179.53;690768;28;1556;-80
2023/05/08 01:59:44;;;;;;;6.78;4.85;;;;;;;13.25;100.00;101181.25;685128;28;1205;-80
2023/05/08 02:00:08;;;;;;;7.35;5.05;;;;;;;13.23;100.00;101176.03;683953;28;1514;-80
2023/05/08 02:00:31;;;;;;;7.03;5.05;;;;;;;13.22;100.00;101179.56;687623;28;2573;-80